Takume Airport

NTKM · French Polynesia

METAR anciennes NTKM · Takume Airport

Tu vois ci-dessous les METAR des derniers jours. Sélectionne une année pour parcourir les METAR plus anciens, à partir de l'année 2007.

12 juillet 2024

Temps Code Temps Temp. Vue Base cloud Vent METAR/SPECI
00:00
M
24 °C 10 km+ 1.600 ft 150° 150° 3 kt METAR NTAA 121000Z AUTO 15003KT 9999 BKN016 OVC088 24/22 Q1011 NOSIG

11 juillet 2024

Temps Code Temps Temp. Vue Base cloud Vent METAR/SPECI
23:30
V
24 °C 10 km+ 9.000 ft 160° 160° 5 kt METAR NTAA 120930Z AUTO 16005KT 9999 FEW014 BKN090 BKN160 24/22 Q1011 NOSIG
23:00
V
24 °C 10 km+ 10.000 ft 170° 170° 4 kt METAR NTAA 120900Z AUTO 17004KT 9999 FEW078 BKN100 BKN160 24/23 Q1011 TEMPO 4000 SHRA
22:30
V
24 °C 10 km+ 8.400 ft 150° 150° 4 kt METAR NTAA 120830Z AUTO 15004KT 9999 OVC084 24/22 Q1011 TEMPO 4000 SHRA
22:00
V
24 °C 10 km+ 9.400 ft 180° 180° 3 kt METAR NTAA 120800Z AUTO 18003KT 9999 FEW074 BKN094 BKN110 24/23 Q1012 TEMPO 4000 SHRA
21:30
V
25 °C 10 km+ 7.800 ft 200° 200° 4 kt METAR NTAA 120730Z AUTO 20004KT 9999 FEW032 BKN078 BKN096 25/23 Q1012 TEMPO 4000 SHRA
21:00
V
25 °C 10 km+ 7.400 ft Var Var 2 kt METAR NTAA 120700Z AUTO VRB02KT 9999 -RA FEW040 SCT060 BKN074 25/23 Q1011 TEMPO 4000 SHRA
20:30
M
25 °C 5 km 2.500 ft 150° 150° 2 kt METAR NTAA 120630Z AUTO 15002KT 5000 RA BR BKN025 BKN038 BKN048 25/23 Q1011 NOSIG
20:00
V
25 °C 10 km+ 7.400 ft 360° 360° 0 kt METAR NTAA 120600Z AUTO 00000KT 9999 FEW024 OVC074 25/23 Q1011 TEMPO 4000 SHRA
19:30
V
26 °C 10 km+ 8.400 ft Var Var 3 kt METAR NTAA 120530Z AUTO VRB03KT 9999 FEW013 OVC084 26/23 Q1011 NOSIG
19:00
V
26 °C 10 km+ 9.000 ft Var Var 3 kt METAR NTAA 120500Z AUTO VRB03KT 9999 FEW019 OVC090 26/23 Q1011 NOSIG
18:30
V
26 °C 10 km+ 9.200 ft Var Var 2 kt METAR NTAA 120430Z AUTO VRB02KT 9999 -RA SCT078 OVC092 26/22 Q1010 NOSIG
18:00
V
26 °C 10 km+ 8.200 ft Var Var 2 kt METAR NTAA 120400Z AUTO VRB02KT 9999 BKN082 BKN110 OVC140 26/22 Q1010 NOSIG
17:30
V
26 °C 10 km+ 10.000 ft 190° 190° 3 kt METAR NTAA 120330Z AUTO 19003KT 150V240 9999 SCT080 BKN100 BKN120 26/22 Q1010 NOSIG
17:00
V
26 °C 10 km+ 7.000 ft 190° 190° 9 kt METAR NTAA 120300Z AUTO 19009KT 9999 FEW024/// BKN070/// OVC098/// ///TCU 26/22 Q1009 BECMG FEW023 BKN050 OVC100
16:30
V
27 °C 10 km+ 6.800 ft 200° 200° 4 kt METAR NTAA 120230Z AUTO 20004KT 9999 FEW023 BKN068 BKN096 27/23 Q1009 NOSIG
16:00
V
27 °C 10 km+ 6.800 ft 200° 200° 8 kt METAR NTAA 120200Z AUTO 20008KT 9999 FEW025 OVC068 27/23 Q1009 TEMPO 3000 SHRA
15:30
V
26 °C 10 km+ 6.800 ft 200° 200° 11 kt METAR NTAA 120130Z AUTO 20011KT 9999 FEW025 BKN068 BKN078 26/23 Q1009 TEMPO 3000 SHRA
15:00
V
26 °C 10 km+ 7.000 ft 210° 210° 8 kt METAR NTAA 120100Z AUTO 21008KT 9999 BKN070 OVC090 26/23 Q1009 TEMPO 3000 SHRA
14:30
V
26 °C 10 km+ 6.200 ft 200° 200° 8 kt METAR NTAA 120030Z AUTO 20008KT 9999 OVC062 26/23 Q1009 TEMPO 3000 SHRA
14:00
V
26 °C 10 km+ 6.000 ft 200° 200° 9 kt METAR NTAA 120000Z AUTO 20009KT 9999 FEW015 BKN060 BKN092 26/23 Q1009 TEMPO 3000 SHRA
13:30
V
26 °C 10 km+ 4.700 ft 240° 240° 3 kt METAR NTAA 112330Z AUTO 24003KT 9999 -RA FEW024 SCT033 BKN047 26/23 Q1009 TEMPO 3000 SHRA
13:00
V
27 °C 10 km+ 5.800 ft 210° 210° 7 kt METAR NTAA 112300Z AUTO 21007KT 9999 FEW032 OVC058 27/22 Q1010 TEMPO 3000 SHRA
12:30
V
27 °C 10 km+ 5.600 ft 210° 210° 6 kt METAR NTAA 112230Z AUTO 21006KT 9999 FEW048 BKN056 BKN066 27/23 Q1010 TEMPO 3000 SHRA
12:00
V
27 °C 10 km+ 5.800 ft 220° 220° 6 kt METAR NTAA 112200Z AUTO 22006KT 9999 FEW044 BKN058 OVC076 27/23 Q1010 TEMPO 3000 SHRA
11:30
V
27 °C 10 km+ 6.400 ft 230° 230° 6 kt METAR NTAA 112130Z AUTO 23006KT 9999 FEW035 BKN064 BKN110 27/22 Q1011 TEMPO 3000 SHRA
11:00
V
27 °C 10 km+ 10.000 ft 210° 210° 6 kt METAR NTAA 112100Z AUTO 21006KT 9999 SCT041 SCT056 BKN100 27/23 Q1011 TEMPO 3000 SHRA
10:30
V
27 °C 10 km+ 4.000 ft 230° 230° 5 kt METAR NTAA 112030Z AUTO 23005KT 200V260 9999 BKN040 BKN094 BKN110 27/23 Q1011 TEMPO 3000 SHRA
10:00
V
27 °C 10 km+ - 220° 220° 4 kt METAR NTAA 112000Z AUTO 22004KT CAVOK 27/22 Q1011 TEMPO 3000 SHRA
09:30
V
27 °C 10 km+ 9.400 ft 200° 200° 5 kt METAR NTAA 111930Z AUTO 20005KT 9999 FEW041 BKN094 BKN190 27/23 Q1011 TEMPO 3000 SHRA
09:00
V
27 °C 10 km+ 9.200 ft 200° 200° 5 kt METAR NTAA 111900Z AUTO 20005KT 160V220 9999 FEW054 BKN092 BKN190 27/22 Q1011 NOSIG
08:30
V
26 °C 10 km+ 8.800 ft 190° 190° 5 kt METAR NTAA 111830Z AUTO 19005KT 9999 SCT054 BKN088 26/22 Q1011 NOSIG
08:00
V
26 °C 10 km+ 5.600 ft Var Var 2 kt METAR NTAA 111800Z AUTO VRB02KT 9999 FEW043 BKN056 BKN088 26/22 Q1010 NOSIG
07:30
V
25 °C 10 km+ 4.900 ft Var Var 2 kt METAR NTAA 111730Z AUTO VRB02KT 9999 OVC049 25/21 Q1010 NOSIG
07:00
V
25 °C 10 km+ 5.400 ft 090° 090° 3 kt METAR NTAA 111700Z AUTO 09003KT 9999 OVC054 25/21 Q1010 NOSIG
06:30
V
24 °C 10 km+ 5.600 ft 100° 100° 3 kt METAR NTAA 111630Z AUTO 10003KT 9999 OVC056 24/21 Q1010 NOSIG
06:00
V
24 °C 10 km+ 5.600 ft 100° 100° 3 kt METAR NTAA 111600Z AUTO 10003KT 9999 FEW033 BKN056 OVC088 24/22 Q1009 NOSIG
05:30
V
24 °C 10 km+ 8.800 ft 080° 080° 3 kt METAR NTAA 111530Z AUTO 08003KT 9999 FEW038 SCT060 BKN088 24/22 Q1009 NOSIG
05:00
V
24 °C 10 km+ 6.200 ft 100° 100° 2 kt METAR NTAA 111500Z AUTO 10002KT 9999 FEW029 BKN062 BKN096 24/22 Q1009 NOSIG
04:30
V
24 °C 10 km+ 6.600 ft 090° 090° 3 kt METAR NTAA 111430Z AUTO 09003KT 9999 FEW030 SCT040 BKN066 24/22 Q1008 NOSIG
04:00
V
24 °C 10 km+ 5.200 ft 040° 040° 1 kt METAR NTAA 111400Z AUTO 04001KT 9999 FEW041 OVC052 24/22 Q1008 NOSIG
03:30
V
24 °C 10 km+ 5.200 ft 100° 100° 3 kt METAR NTAA 111330Z AUTO 10003KT 9999 FEW033 SCT040 OVC052 24/22 Q1008 NOSIG
03:00
V
24 °C 10 km+ 6.000 ft Var Var 2 kt METAR NTAA 111300Z AUTO VRB02KT 9999 FEW034 SCT047 BKN060 24/22 Q1009 NOSIG
02:30
V
24 °C 10 km+ 8.200 ft 190° 190° 1 kt METAR NTAA 111230Z AUTO 19001KT 9999 FEW072 BKN082 OVC200 24/22 Q1009 NOSIG
02:00
V
24 °C 10 km+ 5.200 ft 080° 080° 3 kt METAR NTAA 111200Z AUTO 08003KT 9999 SCT045 BKN052 OVC082 24/22 Q1009 NOSIG
01:30
V
24 °C 10 km+ 4.500 ft Var Var 3 kt METAR NTAA 111130Z AUTO VRB03KT 9999 BKN045 BKN052 BKN066 24/21 Q1009 NOSIG
01:00
V
24 °C 10 km+ 6.400 ft 190° 190° 7 kt METAR NTAA 111100Z AUTO 19007KT 9999 FEW026 SCT050 BKN064 24/22 Q1009 NOSIG
00:30
V
24 °C 10 km+ 9.600 ft 180° 180° 6 kt METAR NTAA 111030Z AUTO 18006KT 9999 FEW026 SCT074 BKN096 24/22 Q1009 NOSIG

10 juillet 2024

Temps Code Temps Temp. Vue Base cloud Vent METAR/SPECI
23:30
M
24 °C 6 km 3.300 ft 180° 180° 8 kt METAR NTAA 110930Z AUTO 18008KT 6000 -RA FEW010 BKN033 BKN044 24/22 Q1010 NOSIG
23:00
M
24 °C 5 km 7.000 ft 180° 180° 11 kt METAR NTAA 110900Z AUTO 18011KT 5000 -RA BR FEW012 SCT054 BKN070 24/23 Q1010 NOSIG
22:30
V
25 °C 10 km+ 7.000 ft 190° 190° 9 kt METAR NTAA 110830Z AUTO 19009KT 9999 FEW008 SCT025 BKN070 25/22 Q1010 NOSIG
22:00
V
25 °C 10 km+ 7.200 ft 190° 190° 8 kt METAR NTAA 110800Z AUTO 19008KT 9999 FEW022 SCT027 OVC072 25/23 Q1010 TEMPO 3000 SHRA
21:30
V
26 °C 10 km+ 7.000 ft Var Var 2 kt METAR NTAA 110730Z AUTO VRB02KT 9999 OVC070 26/20 Q1010 TEMPO 3000 SHRA
21:00
V
26 °C 10 km+ 6.800 ft 060° 060° 4 kt METAR NTAA 110700Z AUTO 06004KT 9999 FEW027 BKN068 26/20 Q1010 TEMPO 22010KT 3000 SHRA
20:30
V
26 °C 10 km+ - 070° 070° 4 kt METAR NTAA 110630Z AUTO 07004KT 9999 FEW024 26/20 Q1010 TEMPO 22010KT 3000 SHRA
20:00
V
26 °C 10 km+ - 060° 060° 3 kt METAR NTAA 110600Z AUTO 06003KT CAVOK 26/20 Q1010 TEMPO 22010KT 3000 SHRA
19:30
V
26 °C 10 km+ - 060° 060° 4 kt METAR NTAA 110530Z AUTO 06004KT 030V090 9999 FEW027 26/20 Q1010 TEMPO 22010KT 3000 SHRA
19:00
V
26 °C 10 km+ - 050° 050° 5 kt METAR NTAA 110500Z AUTO 05005KT 020V090 9999 FEW025 26/21 Q1010 TEMPO 22010KT 3000 SHRA
18:30
V
27 °C 10 km+ - 050° 050° 5 kt METAR NTAA 110430Z AUTO 05005KT 010V090 CAVOK 27/21 Q1009 TEMPO 22010KT 3000 SHRA
18:00
V
27 °C 10 km+ - 050° 050° 6 kt METAR NTAA 110400Z AUTO 05006KT 9999 FEW066 27/21 Q1009 TEMPO 22010KT 3000 SHRA
17:30
V
27 °C 10 km+ 6.600 ft 040° 040° 6 kt METAR NTAA 110330Z AUTO 04006KT 9999 BKN066 27/21 Q1009 TEMPO 22010KT 3000 SHRA
17:00
V
27 °C 10 km+ 7.000 ft 030° 030° 6 kt METAR NTAA 110300Z AUTO 03006KT 9999 BKN070 27/22 Q1009 NOSIG
16:30
V
28 °C 10 km+ - 020° 020° 8 kt METAR NTAA 110230Z AUTO 02008KT 9999 FEW072 28/21 Q1008 NOSIG
16:00
V
28 °C 10 km+ - 010° 010° 8 kt METAR NTAA 110200Z AUTO 01008KT 9999 SCT072 28/22 Q1008 NOSIG
15:30
V
28 °C 10 km+ - 360° 360° 9 kt METAR NTAA 110130Z AUTO 36009KT 9999 FEW070 28/22 Q1008 NOSIG
15:00
V
28 °C 10 km+ - 010° 010° 9 kt METAR NTAA 110100Z AUTO 01009KT CAVOK 28/22 Q1008 NOSIG
14:30
V
29 °C 10 km+ - 010° 010° 8 kt METAR NTAA 110030Z AUTO 01008KT 9999 FEW068 29/23 Q1008 NOSIG
14:00
V
29 °C 10 km+ - 010° 010° 8 kt METAR NTAA 110000Z AUTO 01008KT CAVOK 29/22 Q1008 NOSIG
13:30
V
29 °C 10 km+ - 010° 010° 8 kt METAR NTAA 102330Z AUTO 01008KT CAVOK 29/23 Q1008 NOSIG
13:00
V
29 °C 10 km+ - 010° 010° 7 kt METAR NTAA 102300Z AUTO 01007KT CAVOK 29/22 Q1008 NOSIG
12:30
V
29 °C 10 km+ - 020° 020° 7 kt METAR NTAA 102230Z AUTO 02007KT 9999 FEW072 29/22 Q1009 NOSIG
12:00
V
28 °C 10 km+ 7.400 ft 030° 030° 8 kt METAR NTAA 102200Z AUTO 03008KT 9999 OVC074 28/22 Q1009 NOSIG
11:30
V
29 °C 10 km+ - 020° 020° 9 kt METAR NTAA 102130Z AUTO 02009KT 9999 FEW068 29/22 Q1010 NOSIG
11:00
V
29 °C 10 km+ - 010° 010° 9 kt METAR NTAA 102100Z AUTO 01009KT 9999 FEW062 29/22 Q1010 NOSIG
10:30
V
29 °C 10 km+ - 020° 020° 7 kt METAR NTAA 102030Z AUTO 02007KT 9999 FEW082 29/22 Q1010 NOSIG
10:00
V
28 °C 10 km+ - 040° 040° 7 kt METAR NTAA 102000Z AUTO 04007KT CAVOK 28/22 Q1010 NOSIG
09:30
V
28 °C 10 km+ - 040° 040° 9 kt METAR NTAA 101930Z AUTO 04009KT CAVOK 28/22 Q1010 NOSIG
09:00
V
28 °C 10 km+ - 040° 040° 9 kt METAR NTAA 101900Z AUTO 04009KT CAVOK 28/22 Q1010 NOSIG
08:30
V
27 °C 10 km+ - 050° 050° 7 kt METAR NTAA 101830Z AUTO 05007KT 9999 FEW084 27/21 Q1010 NOSIG
08:00
V
27 °C 10 km+ - 060° 060° 6 kt METAR NTAA 101800Z AUTO 06006KT 9999 FEW060 27/21 Q1010 NOSIG
07:30
V
26 °C 10 km+ - 070° 070° 3 kt METAR NTAA 101730Z AUTO 07003KT 9999 FEW058 26/20 Q1010 NOSIG
07:00
V
24 °C 10 km+ - 070° 070° 5 kt METAR NTAA 101700Z AUTO 07005KT CAVOK 24/20 Q1010 NOSIG
06:30
V
24 °C 10 km+ - 070° 070° 5 kt METAR NTAA 101630Z AUTO 07005KT 9999 FEW052 24/19 Q1009 NOSIG
06:00
V
24 °C 10 km+ - 070° 070° 5 kt METAR NTAA 101600Z AUTO 07005KT 9999 FEW052 24/20 Q1009 NOSIG
05:30
V
24 °C 10 km+ - 080° 080° 4 kt METAR NTAA 101530Z AUTO 08004KT CAVOK 24/19 Q1009 NOSIG
05:00
V
24 °C 10 km+ - 080° 080° 4 kt METAR NTAA 101500Z AUTO 08004KT CAVOK 24/20 Q1009 NOSIG
04:30
V
23 °C 10 km+ - Var Var 3 kt METAR NTAA 101430Z AUTO VRB03KT CAVOK 23/20 Q1009 NOSIG
04:00
V
23 °C 10 km+ - 080° 080° 5 kt METAR NTAA 101400Z AUTO 08005KT CAVOK 23/20 Q1009 NOSIG
03:30
V
23 °C 10 km+ - 090° 090° 3 kt METAR NTAA 101330Z AUTO 09003KT CAVOK 23/20 Q1009 NOSIG
03:00
V
23 °C 10 km+ - 110° 110° 2 kt METAR NTAA 101300Z AUTO 11002KT CAVOK 23/20 Q1009 NOSIG
02:30
V
23 °C 10 km+ - 130° 130° 1 kt METAR NTAA 101230Z AUTO 13001KT CAVOK 23/20 Q1009 NOSIG
02:00
V
23 °C 10 km+ - 110° 110° 3 kt METAR NTAA 101200Z AUTO 11003KT CAVOK 23/20 Q1009 NOSIG
01:30
V
23 °C 10 km+ - 100° 100° 3 kt METAR NTAA 101130Z AUTO 10003KT CAVOK 23/20 Q1010 NOSIG
01:00
V
24 °C 10 km+ - 130° 130° 1 kt METAR NTAA 101100Z AUTO 13001KT 9999 FEW049 24/20 Q1010 NOSIG
00:30
V
24 °C 10 km+ - 130° 130° 2 kt METAR NTAA 101030Z AUTO 13002KT 9999 FEW049 24/20 Q1010 NOSIG
00:00
V
24 °C 10 km+ - Var Var 1 kt METAR NTAA 101000Z AUTO VRB01KT CAVOK 24/20 Q1010 NOSIG

9 juillet 2024

Temps Code Temps Temp. Vue Base cloud Vent METAR/SPECI
23:30
V
24 °C 10 km+ - 150° 150° 1 kt METAR NTAA 100930Z AUTO 15001KT CAVOK 24/20 Q1011 NOSIG
23:00
V
25 °C 10 km+ - Var Var 3 kt METAR NTAA 100900Z AUTO VRB03KT 9999 SCT039 25/21 Q1011 NOSIG
22:30
V
25 °C 10 km+ 3.800 ft 110° 110° 2 kt METAR NTAA 100830Z AUTO 11002KT 9999 BKN038 25/21 Q1011 NOSIG
22:00
V
25 °C 10 km+ 3.700 ft 130° 130° 2 kt METAR NTAA 100800Z AUTO 13002KT 9999 OVC037 25/21 Q1011 NOSIG
21:30
V
25 °C 10 km+ 3.700 ft Var Var 1 kt METAR NTAA 100730Z AUTO VRB01KT 9999 BKN037 25/21 Q1011 NOSIG
21:00
V
25 °C 10 km+ 3.700 ft Var Var 2 kt METAR NTAA 100700Z AUTO VRB02KT 9999 BKN037 25/21 Q1011 NOSIG
20:30
V
25 °C 10 km+ - 160° 160° 3 kt METAR NTAA 100630Z AUTO 16003KT 9999 FEW038 25/21 Q1011 NOSIG
20:00
V
25 °C 10 km+ 3.900 ft 230° 230° 7 kt METAR NTAA 100600Z AUTO 23007KT 9999 FEW027 SCT033 BKN039 25/21 Q1011 NOSIG
Signaler les modifications